sensor_id;sensor_type;location;lat;lon;timestamp;P1;durP1;ratioP1;P2;durP2;ratioP2
47025;SDS011;32783;51.756;-2.556;2023-05-10T00:00:31;0.52;;;0.50;;
47025;SDS011;32783;51.756;-2.556;2023-05-10T00:02:57;0.57;;;0.57;;
47025;SDS011;32783;51.756;-2.556;2023-05-10T00:05:22;0.52;;;0.30;;
47025;SDS011;32783;51.756;-2.556;2023-05-10T00:07:48;0.77;;;0.50;;
47025;SDS011;32783;51.756;-2.556;2023-05-10T00:10:13;0.50;;;0.40;;
47025;SDS011;32783;51.756;-2.556;2023-05-10T00:12:39;0.30;;;0.30;;
47025;SDS011;32783;51.756;-2.556;2023-05-10T00:15:04;0.40;;;0.40;;
47025;SDS011;32783;51.756;-2.556;2023-05-10T00:17:30;1.30;;;0.50;;
47025;SDS011;32783;51.756;-2.556;2023-05-10T00:19:56;0.35;;;0.35;;
47025;SDS011;32783;51.756;-2.556;2023-05-10T00:22:21;0.75;;;0.30;;
47025;SDS011;32783;51.756;-2.556;2023-05-10T00:24:47;0.43;;;0.43;;
47025;SDS011;32783;51.756;-2.556;2023-05-10T00:27:12;0.55;;;0.40;;
47025;SDS011;32783;51.756;-2.556;2023-05-10T00:29:37;0.32;;;0.32;;
47025;SDS011;32783;51.756;-2.556;2023-05-10T00:32:03;0.50;;;0.40;;
47025;SDS011;32783;51.756;-2.556;2023-05-10T00:34:28;0.95;;;0.30;;
47025;SDS011;32783;51.756;-2.556;2023-05-10T00:36:54;1.00;;;0.85;;
47025;SDS011;32783;51.756;-2.556;2023-05-10T00:39:19;0.73;;;0.50;;
47025;SDS011;32783;51.756;-2.556;2023-05-10T00:41:45;0.45;;;0.45;;
47025;SDS011;32783;51.756;-2.556;2023-05-10T00:44:10;0.32;;;0.30;;
47025;SDS011;32783;51.756;-2.556;2023-05-10T00:46:36;0.50;;;0.40;;
47025;SDS011;32783;51.756;-2.556;2023-05-10T00:49:01;0.77;;;0.40;;
47025;SDS011;32783;51.756;-2.556;2023-05-10T00:51:27;0.28;;;0.28;;
47025;SDS011;32783;51.756;-2.556;2023-05-10T00:53:52;0.55;;;0.40;;
47025;SDS011;32783;51.756;-2.556;2023-05-10T00:56:18;0.60;;;0.30;;
47025;SDS011;32783;51.756;-2.556;2023-05-10T00:58:47;0.47;;;0.40;;
47025;SDS011;32783;51.756;-2.556;2023-05-10T01:01:13;0.40;;;0.32;;
47025;SDS011;32783;51.756;-2.556;2023-05-10T01:03:38;0.50;;;0.35;;
47025;SDS011;32783;51.756;-2.556;2023-05-10T01:06:05;0.50;;;0.30;;
47025;SDS011;32783;51.756;-2.556;2023-05-10T01:08:30;0.55;;;0.40;;
47025;SDS011;32783;51.756;-2.556;2023-05-10T01:10:56;0.40;;;0.30;;
47025;SDS011;32783;51.756;-2.556;2023-05-10T01:13:30;1.17;;;0.93;;
47025;SDS011;32783;51.756;-2.556;2023-05-10T01:15:57;0.80;;;0.38;;
47025;SDS011;32783;51.756;-2.556;2023-05-10T01:18:23;0.25;;;0.25;;
47025;SDS011;32783;51.756;-2.556;2023-05-10T01:20:50;0.30;;;0.20;;
47025;SDS011;32783;51.756;-2.556;2023-05-10T01:31:33;0.68;;;0.40;;
47025;SDS011;32783;51.756;-2.556;2023-05-10T01:34:02;0.30;;;0.25;;
47025;SDS011;32783;51.756;-2.556;2023-05-10T01:36:35;0.30;;;0.30;;
47025;SDS011;32783;51.756;-2.556;2023-05-10T01:41:49;0.20;;;0.20;;
47025;SDS011;32783;51.756;-2.556;2023-05-10T01:47:05;0.40;;;0.30;;
47025;SDS011;32783;51.756;-2.556;2023-05-10T01:49:39;0.38;;;0.22;;
47025;SDS011;32783;51.756;-2.556;2023-05-10T01:52:10;0.40;;;0.40;;
47025;SDS011;32783;51.756;-2.556;2023-05-10T01:54:41;0.50;;;0.30;;
47025;SDS011;32783;51.756;-2.556;2023-05-10T01:57:08;0.68;;;0.50;;
47025;SDS011;32783;51.756;-2.556;2023-05-10T01:59:35;0.45;;;0.30;;
47025;SDS011;32783;51.756;-2.556;2023-05-10T02:04:29;0.52;;;0.30;;
47025;SDS011;32783;51.756;-2.556;2023-05-10T02:06:55;0.30;;;0.30;;
47025;SDS011;32783;51.756;-2.556;2023-05-10T02:09:20;0.20;;;0.20;;
47025;SDS011;32783;51.756;-2.556;2023-05-10T02:11:47;0.25;;;0.25;;
47025;SDS011;32783;51.756;-2.556;2023-05-10T02:14:13;0.30;;;0.25;;
47025;SDS011;32783;51.756;-2.556;2023-05-10T02:16:39;0.30;;;0.20;;
47025;SDS011;32783;51.756;-2.556;2023-05-10T02:19:05;0.40;;;0.30;;
47025;SDS011;32783;51.756;-2.556;2023-05-10T02:21:32;0.20;;;0.20;;
47025;SDS011;32783;51.756;-2.556;2023-05-10T02:23:58;0.10;;;0.10;;
47025;SDS011;32783;51.756;-2.556;2023-05-10T02:26:24;0.20;;;0.20;;
47025;SDS011;32783;51.756;-2.556;2023-05-10T02:28:51;0.20;;;0.20;;
47025;SDS011;32783;51.756;-2.556;2023-05-10T02:31:17;1.85;;;0.30;;
47025;SDS011;32783;51.756;-2.556;2023-05-10T02:33:44;0.30;;;0.30;;
47025;SDS011;32783;51.756;-2.556;2023-05-10T02:36:09;0.20;;;0.20;;
47025;SDS011;32783;51.756;-2.556;2023-05-10T02:38:35;0.50;;;0.50;;
47025;SDS011;32783;51.756;-2.556;2023-05-10T02:41:01;0.30;;;0.30;;
47025;SDS011;32783;51.756;-2.556;2023-05-10T02:43:27;0.30;;;0.30;;
47025;SDS011;32783;51.756;-2.556;2023-05-10T02:45:53;0.20;;;0.20;;
47025;SDS011;32783;51.756;-2.556;2023-05-10T02:48:19;0.47;;;0.20;;
47025;SDS011;32783;51.756;-2.556;2023-05-10T02:50:44;0.45;;;0.20;;
47025;SDS011;32783;51.756;-2.556;2023-05-10T02:53:11;0.30;;;0.30;;
47025;SDS011;32783;51.756;-2.556;2023-05-10T02:58:07;0.28;;;0.20;;
47025;SDS011;32783;51.756;-2.556;2023-05-10T03:00:32;0.52;;;0.17;;
47025;SDS011;32783;51.756;-2.556;2023-05-10T03:02:57;0.40;;;0.38;;
47025;SDS011;32783;51.756;-2.556;2023-05-10T03:05:23;0.40;;;0.20;;
47025;SDS011;32783;51.756;-2.556;2023-05-10T03:07:49;0.50;;;0.22;;
47025;SDS011;32783;51.756;-2.556;2023-05-10T03:10:15;0.30;;;0.25;;
47025;SDS011;32783;51.756;-2.556;2023-05-10T03:15:53;0.20;;;0.20;;
47025;SDS011;32783;51.756;-2.556;2023-05-10T03:18:22;0.30;;;0.20;;
47025;SDS011;32783;51.756;-2.556;2023-05-10T03:20:50;0.13;;;0.13;;
47025;SDS011;32783;51.756;-2.556;2023-05-10T03:25:49;0.40;;;0.30;;
47025;SDS011;32783;51.756;-2.556;2023-05-10T03:28:16;0.32;;;0.30;;
47025;SDS011;32783;51.756;-2.556;2023-05-10T03:30:42;0.20;;;0.20;;
47025;SDS011;32783;51.756;-2.556;2023-05-10T03:33:08;0.17;;;0.13;;
47025;SDS011;32783;51.756;-2.556;2023-05-10T03:35:34;0.20;;;0.20;;
47025;SDS011;32783;51.756;-2.556;2023-05-10T03:37:59;0.30;;;0.20;;
47025;SDS011;32783;51.756;-2.556;2023-05-10T03:40:26;0.20;;;0.20;;
47025;SDS011;32783;51.756;-2.556;2023-05-10T03:42:53;0.10;;;0.10;;
47025;SDS011;32783;51.756;-2.556;2023-05-10T03:45:19;0.50;;;0.30;;
47025;SDS011;32783;51.756;-2.556;2023-05-10T03:47:45;0.20;;;0.20;;
47025;SDS011;32783;51.756;-2.556;2023-05-10T03:50:10;0.40;;;0.25;;
47025;SDS011;32783;51.756;-2.556;2023-05-10T03:52:35;0.32;;;0.32;;
47025;SDS011;32783;51.756;-2.556;2023-05-10T03:55:01;0.20;;;0.20;;
47025;SDS011;32783;51.756;-2.556;2023-05-10T03:57:28;0.28;;;0.25;;
47025;SDS011;32783;51.756;-2.556;2023-05-10T03:59:54;0.60;;;0.30;;
47025;SDS011;32783;51.756;-2.556;2023-05-10T04:02:19;0.30;;;0.30;;
47025;SDS011;32783;51.756;-2.556;2023-05-10T04:04:44;0.45;;;0.30;;
47025;SDS011;32783;51.756;-2.556;2023-05-10T04:07:10;0.20;;;0.20;;
47025;SDS011;32783;51.756;-2.556;2023-05-10T04:09:35;0.30;;;0.30;;
47025;SDS011;32783;51.756;-2.556;2023-05-10T04:12:00;0.10;;;0.10;;
47025;SDS011;32783;51.756;-2.556;2023-05-10T04:14:27;0.28;;;0.22;;
47025;SDS011;32783;51.756;-2.556;2023-05-10T04:16:52;0.20;;;0.20;;
47025;SDS011;32783;51.756;-2.556;2023-05-10T04:19:18;0.30;;;0.30;;
47025;SDS011;32783;51.756;-2.556;2023-05-10T04:21:43;0.17;;;0.17;;
47025;SDS011;32783;51.756;-2.556;2023-05-10T04:24:09;0.40;;;0.20;;
47025;SDS011;32783;51.756;-2.556;2023-05-10T04:26:34;0.20;;;0.20;;
47025;SDS011;32783;51.756;-2.556;2023-05-10T04:29:00;0.22;;;0.20;;
47025;SDS011;32783;51.756;-2.556;2023-05-10T04:31:25;0.47;;;0.20;;
47025;SDS011;32783;51.756;-2.556;2023-05-10T04:33:51;0.20;;;0.10;;
47025;SDS011;32783;51.756;-2.556;2023-05-10T04:36:17;0.20;;;0.20;;
47025;SDS011;32783;51.756;-2.556;2023-05-10T04:38:42;0.20;;;0.20;;
47025;SDS011;32783;51.756;-2.556;2023-05-10T04:41:09;0.50;;;0.20;;
47025;SDS011;32783;51.756;-2.556;2023-05-10T04:43:35;0.20;;;0.20;;
47025;SDS011;32783;51.756;-2.556;2023-05-10T04:46:01;0.10;;;0.10;;
47025;SDS011;32783;51.756;-2.556;2023-05-10T04:48:26;0.10;;;0.10;;
47025;SDS011;32783;51.756;-2.556;2023-05-10T04:50:52;0.30;;;0.30;;
47025;SDS011;32783;51.756;-2.556;2023-05-10T04:53:17;0.22;;;0.20;;
47025;SDS011;32783;51.756;-2.556;2023-05-10T04:55:43;0.17;;;0.10;;
47025;SDS011;32783;51.756;-2.556;2023-05-10T04:58:08;0.40;;;0.40;;
47025;SDS011;32783;51.756;-2.556;2023-05-10T05:00:33;0.28;;;0.28;;
47025;SDS011;32783;51.756;-2.556;2023-05-10T05:02:59;0.10;;;0.10;;
47025;SDS011;32783;51.756;-2.556;2023-05-10T05:05:24;0.22;;;0.20;;
47025;SDS011;32783;51.756;-2.556;2023-05-10T05:07:50;0.17;;;0.17;;
47025;SDS011;32783;51.756;-2.556;2023-05-10T05:10:15;0.32;;;0.22;;
47025;SDS011;32783;51.756;-2.556;2023-05-10T05:12:41;0.20;;;0.20;;
47025;SDS011;32783;51.756;-2.556;2023-05-10T05:15:06;1.27;;;0.30;;
47025;SDS011;32783;51.756;-2.556;2023-05-10T05:17:34;0.60;;;0.20;;
47025;SDS011;32783;51.756;-2.556;2023-05-10T05:19:59;0.30;;;0.10;;
47025;SDS011;32783;51.756;-2.556;2023-05-10T05:22:25;0.28;;;0.20;;
47025;SDS011;32783;51.756;-2.556;2023-05-10T05:24:56;0.20;;;0.20;;
47025;SDS011;32783;51.756;-2.556;2023-05-10T05:27:23;0.10;;;0.10;;
47025;SDS011;32783;51.756;-2.556;2023-05-10T05:29:52;0.20;;;0.20;;
47025;SDS011;32783;51.756;-2.556;2023-05-10T05:32:18;0.17;;;0.17;;
47025;SDS011;32783;51.756;-2.556;2023-05-10T05:34:44;0.22;;;0.22;;
47025;SDS011;32783;51.756;-2.556;2023-05-10T05:37:17;0.20;;;0.20;;
47025;SDS011;32783;51.756;-2.556;2023-05-10T05:39:43;0.17;;;0.17;;
47025;SDS011;32783;51.756;-2.556;2023-05-10T05:42:09;0.10;;;0.10;;
47025;SDS011;32783;51.756;-2.556;2023-05-10T05:44:35;0.20;;;0.20;;
47025;SDS011;32783;51.756;-2.556;2023-05-10T05:47:01;0.17;;;0.17;;
47025;SDS011;32783;51.756;-2.556;2023-05-10T05:49:26;0.17;;;0.17;;
47025;SDS011;32783;51.756;-2.556;2023-05-10T05:51:52;0.10;;;0.10;;
47025;SDS011;32783;51.756;-2.556;2023-05-10T05:54:17;0.20;;;0.20;;
47025;SDS011;32783;51.756;-2.556;2023-05-10T05:56:42;0.20;;;0.20;;
47025;SDS011;32783;51.756;-2.556;2023-05-10T05:59:09;0.17;;;0.10;;
47025;SDS011;32783;51.756;-2.556;2023-05-10T06:01:35;0.50;;;0.22;;
47025;SDS011;32783;51.756;-2.556;2023-05-10T06:04:00;0.10;;;0.10;;
47025;SDS011;32783;51.756;-2.556;2023-05-10T06:06:25;0.20;;;0.20;;
47025;SDS011;32783;51.756;-2.556;2023-05-10T06:08:51;0.30;;;0.30;;
47025;SDS011;32783;51.756;-2.556;2023-05-10T06:11:17;0.10;;;0.10;;
47025;SDS011;32783;51.756;-2.556;2023-05-10T06:13:42;0.10;;;0.10;;
47025;SDS011;32783;51.756;-2.556;2023-05-10T06:16:08;0.20;;;0.20;;
47025;SDS011;32783;51.756;-2.556;2023-05-10T06:18:33;0.20;;;0.10;;
47025;SDS011;32783;51.756;-2.556;2023-05-10T06:20:59;0.25;;;0.20;;
47025;SDS011;32783;51.756;-2.556;2023-05-10T06:23:24;0.10;;;0.10;;
47025;SDS011;32783;51.756;-2.556;2023-05-10T06:25:50;0.10;;;0.10;;
47025;SDS011;32783;51.756;-2.556;2023-05-10T06:28:16;0.30;;;0.20;;
47025;SDS011;32783;51.756;-2.556;2023-05-10T06:30:41;0.15;;;0.10;;
47025;SDS011;32783;51.756;-2.556;2023-05-10T06:33:07;1.20;;;0.10;;
47025;SDS011;32783;51.756;-2.556;2023-05-10T06:35:33;0.10;;;0.10;;
47025;SDS011;32783;51.756;-2.556;2023-05-10T06:37:58;0.55;;;0.20;;
47025;SDS011;32783;51.756;-2.556;2023-05-10T06:40:24;0.00;;;0.00;;
47025;SDS011;32783;51.756;-2.556;2023-05-10T06:42:49;0.10;;;0.10;;
47025;SDS011;32783;51.756;-2.556;2023-05-10T06:45:15;0.32;;;0.22;;
47025;SDS011;32783;51.756;-2.556;2023-05-10T06:47:41;0.73;;;0.10;;
47025;SDS011;32783;51.756;-2.556;2023-05-10T06:50:07;0.20;;;0.20;;
47025;SDS011;32783;51.756;-2.556;2023-05-10T06:52:33;0.32;;;0.10;;
47025;SDS011;32783;51.756;-2.556;2023-05-10T06:54:58;0.20;;;0.20;;
47025;SDS011;32783;51.756;-2.556;2023-05-10T06:57:24;0.30;;;0.20;;
47025;SDS011;32783;51.756;-2.556;2023-05-10T06:59:49;0.65;;;0.10;;
47025;SDS011;32783;51.756;-2.556;2023-05-10T07:02:15;0.10;;;0.10;;
47025;SDS011;32783;51.756;-2.556;2023-05-10T07:04:40;0.20;;;0.20;;
47025;SDS011;32783;51.756;-2.556;2023-05-10T07:07:06;0.20;;;0.17;;
47025;SDS011;32783;51.756;-2.556;2023-05-10T07:09:31;0.50;;;0.20;;
47025;SDS011;32783;51.756;-2.556;2023-05-10T07:11:57;0.43;;;0.20;;
47025;SDS011;32783;51.756;-2.556;2023-05-10T07:14:22;1.15;;;0.40;;
47025;SDS011;32783;51.756;-2.556;2023-05-10T07:16:48;1.02;;;0.20;;
47025;SDS011;32783;51.756;-2.556;2023-05-10T07:19:14;1.30;;;0.20;;
47025;SDS011;32783;51.756;-2.556;2023-05-10T07:21:39;0.10;;;0.10;;
47025;SDS011;32783;51.756;-2.556;2023-05-10T07:24:07;1.27;;;0.28;;
47025;SDS011;32783;51.756;-2.556;2023-05-10T07:26:33;0.10;;;0.10;;
47025;SDS011;32783;51.756;-2.556;2023-05-10T07:28:58;0.20;;;0.20;;
47025;SDS011;32783;51.756;-2.556;2023-05-10T07:31:23;0.65;;;0.30;;
47025;SDS011;32783;51.756;-2.556;2023-05-10T07:33:49;0.30;;;0.28;;
47025;SDS011;32783;51.756;-2.556;2023-05-10T07:36:14;0.45;;;0.20;;
47025;SDS011;32783;51.756;-2.556;2023-05-10T07:38:40;1.65;;;0.30;;
47025;SDS011;32783;51.756;-2.556;2023-05-10T07:41:05;0.25;;;0.20;;
47025;SDS011;32783;51.756;-2.556;2023-05-10T07:43:31;0.20;;;0.20;;
47025;SDS011;32783;51.756;-2.556;2023-05-10T07:45:56;0.30;;;0.20;;
47025;SDS011;32783;51.756;-2.556;2023-05-10T07:48:22;0.40;;;0.30;;
47025;SDS011;32783;51.756;-2.556;2023-05-10T07:50:48;0.20;;;0.20;;
47025;SDS011;32783;51.756;-2.556;2023-05-10T07:53:13;0.68;;;0.30;;
47025;SDS011;32783;51.756;-2.556;2023-05-10T07:55:38;0.20;;;0.20;;
47025;SDS011;32783;51.756;-2.556;2023-05-10T07:58:04;1.58;;;0.25;;
47025;SDS011;32783;51.756;-2.556;2023-05-10T08:00:29;1.13;;;1.13;;
47025;SDS011;32783;51.756;-2.556;2023-05-10T08:02:55;0.70;;;0.30;;
47025;SDS011;32783;51.756;-2.556;2023-05-10T08:05:20;0.63;;;0.20;;
47025;SDS011;32783;51.756;-2.556;2023-05-10T08:07:45;0.50;;;0.30;;
47025;SDS011;32783;51.756;-2.556;2023-05-10T08:10:11;1.10;;;0.30;;
47025;SDS011;32783;51.756;-2.556;2023-05-10T08:12:36;0.22;;;0.10;;
47025;SDS011;32783;51.756;-2.556;2023-05-10T08:15:03;5.03;;;0.30;;
47025;SDS011;32783;51.756;-2.556;2023-05-10T08:17:29;0.20;;;0.20;;
47025;SDS011;32783;51.756;-2.556;2023-05-10T08:19:54;0.63;;;0.38;;
47025;SDS011;32783;51.756;-2.556;2023-05-10T08:22:20;1.58;;;0.30;;
47025;SDS011;32783;51.756;-2.556;2023-05-10T08:24:45;0.60;;;0.28;;
47025;SDS011;32783;51.756;-2.556;2023-05-10T08:27:10;1.20;;;0.25;;
47025;SDS011;32783;51.756;-2.556;2023-05-10T08:29:36;1.50;;;0.25;;
47025;SDS011;32783;51.756;-2.556;2023-05-10T08:32:02;0.90;;;0.30;;
47025;SDS011;32783;51.756;-2.556;2023-05-10T08:34:28;0.52;;;0.38;;
47025;SDS011;32783;51.756;-2.556;2023-05-10T08:36:53;0.60;;;0.30;;
47025;SDS011;32783;51.756;-2.556;2023-05-10T08:39:18;1.83;;;0.50;;
47025;SDS011;32783;51.756;-2.556;2023-05-10T08:41:44;1.23;;;0.60;;
47025;SDS011;32783;51.756;-2.556;2023-05-10T08:44:10;2.45;;;0.68;;
47025;SDS011;32783;51.756;-2.556;2023-05-10T08:46:35;0.98;;;0.28;;
47025;SDS011;32783;51.756;-2.556;2023-05-10T08:49:03;0.65;;;0.30;;
47025;SDS011;32783;51.756;-2.556;2023-05-10T08:51:29;3.25;;;0.82;;
47025;SDS011;32783;51.756;-2.556;2023-05-10T08:53:59;3.38;;;0.40;;
47025;SDS011;32783;51.756;-2.556;2023-05-10T08:56:25;1.42;;;0.60;;
47025;SDS011;32783;51.756;-2.556;2023-05-10T08:58:51;1.00;;;0.40;;
47025;SDS011;32783;51.756;-2.556;2023-05-10T09:01:16;0.32;;;0.30;;
47025;SDS011;32783;51.756;-2.556;2023-05-10T09:03:43;2.38;;;0.40;;
47025;SDS011;32783;51.756;-2.556;2023-05-10T09:06:08;0.93;;;0.50;;
47025;SDS011;32783;51.756;-2.556;2023-05-10T09:08:34;1.35;;;0.30;;
47025;SDS011;32783;51.756;-2.556;2023-05-10T09:11:00;0.88;;;0.40;;
47025;SDS011;32783;51.756;-2.556;2023-05-10T09:13:26;0.90;;;0.40;;
47025;SDS011;32783;51.756;-2.556;2023-05-10T09:15:51;1.25;;;0.40;;
47025;SDS011;32783;51.756;-2.556;2023-05-10T09:18:18;1.55;;;0.80;;
47025;SDS011;32783;51.756;-2.556;2023-05-10T09:20:43;2.13;;;0.43;;
47025;SDS011;32783;51.756;-2.556;2023-05-10T09:23:09;1.65;;;0.30;;
47025;SDS011;32783;51.756;-2.556;2023-05-10T09:25:34;0.90;;;0.52;;
47025;SDS011;32783;51.756;-2.556;2023-05-10T09:28:00;3.22;;;0.43;;
47025;SDS011;32783;51.756;-2.556;2023-05-10T09:30:26;0.45;;;0.25;;
47025;SDS011;32783;51.756;-2.556;2023-05-10T09:32:53;0.73;;;0.40;;
47025;SDS011;32783;51.756;-2.556;2023-05-10T09:35:20;3.47;;;0.52;;
47025;SDS011;32783;51.756;-2.556;2023-05-10T09:37:48;2.13;;;0.52;;
47025;SDS011;32783;51.756;-2.556;2023-05-10T09:43:03;2.75;;;0.50;;
47025;SDS011;32783;51.756;-2.556;2023-05-10T09:45:28;1.25;;;0.50;;
47025;SDS011;32783;51.756;-2.556;2023-05-10T09:47:56;2.60;;;0.60;;
47025;SDS011;32783;51.756;-2.556;2023-05-10T09:50:22;3.05;;;0.52;;
47025;SDS011;32783;51.756;-2.556;2023-05-10T09:52:55;1.88;;;0.43;;
47025;SDS011;32783;51.756;-2.556;2023-05-10T09:55:25;1.10;;;0.60;;
47025;SDS011;32783;51.756;-2.556;2023-05-10T09:58:07;1.10;;;0.40;;
47025;SDS011;32783;51.756;-2.556;2023-05-10T10:00:37;3.20;;;0.50;;
47025;SDS011;32783;51.756;-2.556;2023-05-10T10:03:04;14.35;;;2.13;;
47025;SDS011;32783;51.756;-2.556;2023-05-10T10:05:33;0.93;;;0.50;;
47025;SDS011;32783;51.756;-2.556;2023-05-10T10:08:00;0.77;;;0.40;;
47025;SDS011;32783;51.756;-2.556;2023-05-10T10:10:28;2.00;;;0.70;;
47025;SDS011;32783;51.756;-2.556;2023-05-10T10:12:54;1.27;;;0.50;;
47025;SDS011;32783;51.756;-2.556;2023-05-10T10:15:20;2.42;;;0.60;;
47025;SDS011;32783;51.756;-2.556;2023-05-10T10:17:46;1.17;;;0.50;;
47025;SDS011;32783;51.756;-2.556;2023-05-10T10:20:13;1.00;;;0.32;;
47025;SDS011;32783;51.756;-2.556;2023-05-10T10:22:39;1.45;;;0.60;;
47025;SDS011;32783;51.756;-2.556;2023-05-10T10:25:04;0.93;;;0.50;;
47025;SDS011;32783;51.756;-2.556;2023-05-10T10:35:08;3.65;;;0.70;;
47025;SDS011;32783;51.756;-2.556;2023-05-10T10:37:44;2.90;;;0.70;;
47025;SDS011;32783;51.756;-2.556;2023-05-10T10:40:26;0.55;;;0.38;;
47025;SDS011;32783;51.756;-2.556;2023-05-10T10:42:52;1.55;;;0.70;;
47025;SDS011;32783;51.756;-2.556;2023-05-10T10:45:19;1.95;;;0.50;;
47025;SDS011;32783;51.756;-2.556;2023-05-10T10:47:45;1.95;;;0.60;;
47025;SDS011;32783;51.756;-2.556;2023-05-10T10:50:10;2.22;;;0.60;;
47025;SDS011;32783;51.756;-2.556;2023-05-10T10:52:41;1.10;;;0.40;;
47025;SDS011;32783;51.756;-2.556;2023-05-10T11:02:47;1.70;;;0.63;;
47025;SDS011;32783;51.756;-2.556;2023-05-10T11:07:56;1.25;;;0.55;;
47025;SDS011;32783;51.756;-2.556;2023-05-10T11:10:23;1.70;;;0.47;;
47025;SDS011;32783;51.756;-2.556;2023-05-10T11:17:56;1.00;;;0.60;;
47025;SDS011;32783;51.756;-2.556;2023-05-10T11:20:21;2.67;;;0.70;;
47025;SDS011;32783;51.756;-2.556;2023-05-10T11:22:53;3.95;;;0.50;;
47025;SDS011;32783;51.756;-2.556;2023-05-10T11:25:20;3.33;;;0.70;;
47025;SDS011;32783;51.756;-2.556;2023-05-10T11:30:14;3.80;;;0.52;;
47025;SDS011;32783;51.756;-2.556;2023-05-10T11:32:39;5.30;;;1.10;;
47025;SDS011;32783;51.756;-2.556;2023-05-10T11:35:08;1.48;;;0.73;;
47025;SDS011;32783;51.756;-2.556;2023-05-10T11:40:00;2.17;;;0.70;;
47025;SDS011;32783;51.756;-2.556;2023-05-10T11:42:27;6.72;;;0.70;;
47025;SDS011;32783;51.756;-2.556;2023-05-10T11:44:53;1.30;;;0.40;;
47025;SDS011;32783;51.756;-2.556;2023-05-10T11:47:18;0.68;;;0.40;;
47025;SDS011;32783;51.756;-2.556;2023-05-10T11:49:44;2.38;;;0.75;;
47025;SDS011;32783;51.756;-2.556;2023-05-10T11:52:10;1.73;;;0.60;;
47025;SDS011;32783;51.756;-2.556;2023-05-10T11:54:44;2.83;;;0.98;;
47025;SDS011;32783;51.756;-2.556;2023-05-10T11:57:18;2.97;;;0.70;;
47025;SDS011;32783;51.756;-2.556;2023-05-10T11:59:43;2.75;;;0.68;;
47025;SDS011;32783;51.756;-2.556;2023-05-10T12:02:09;2.28;;;0.77;;
47025;SDS011;32783;51.756;-2.556;2023-05-10T12:04:35;2.08;;;0.50;;
47025;SDS011;32783;51.756;-2.556;2023-05-10T12:07:00;2.80;;;0.70;;
47025;SDS011;32783;51.756;-2.556;2023-05-10T12:09:26;2.03;;;0.70;;
47025;SDS011;32783;51.756;-2.556;2023-05-10T12:11:54;1.65;;;0.70;;
47025;SDS011;32783;51.756;-2.556;2023-05-10T12:16:47;1.52;;;0.50;;
47025;SDS011;32783;51.756;-2.556;2023-05-10T12:19:12;1.67;;;0.55;;
47025;SDS011;32783;51.756;-2.556;2023-05-10T12:21:43;1.63;;;0.60;;
47025;SDS011;32783;51.756;-2.556;2023-05-10T12:24:09;1.52;;;0.70;;
47025;SDS011;32783;51.756;-2.556;2023-05-10T12:26:35;1.52;;;0.50;;
47025;SDS011;32783;51.756;-2.556;2023-05-10T12:29:19;2.55;;;0.88;;
47025;SDS011;32783;51.756;-2.556;2023-05-10T12:31:55;1.42;;;0.50;;
47025;SDS011;32783;51.756;-2.556;2023-05-10T12:36:56;3.88;;;0.65;;
47025;SDS011;32783;51.756;-2.556;2023-05-10T12:39:21;3.22;;;0.70;;
47025;SDS011;32783;51.756;-2.556;2023-05-10T12:41:47;5.85;;;1.60;;
47025;SDS011;32783;51.756;-2.556;2023-05-10T12:44:12;3.40;;;1.05;;
47025;SDS011;32783;51.756;-2.556;2023-05-10T12:46:38;6.85;;;3.58;;
47025;SDS011;32783;51.756;-2.556;2023-05-10T12:49:03;6.32;;;3.22;;
47025;SDS011;32783;51.756;-2.556;2023-05-10T12:51:28;12.43;;;6.18;;
47025;SDS011;32783;51.756;-2.556;2023-05-10T12:53:54;11.88;;;6.95;;
47025;SDS011;32783;51.756;-2.556;2023-05-10T12:56:20;14.82;;;7.22;;
47025;SDS011;32783;51.756;-2.556;2023-05-10T12:58:45;9.65;;;4.00;;
47025;SDS011;32783;51.756;-2.556;2023-05-10T13:01:13;7.65;;;3.05;;
47025;SDS011;32783;51.756;-2.556;2023-05-10T13:03:38;10.57;;;4.70;;
47025;SDS011;32783;51.756;-2.556;2023-05-10T13:06:04;9.32;;;5.18;;
47025;SDS011;32783;51.756;-2.556;2023-05-10T13:08:30;12.27;;;4.53;;
47025;SDS011;32783;51.756;-2.556;2023-05-10T13:10:58;9.20;;;3.85;;
47025;SDS011;32783;51.756;-2.556;2023-05-10T13:13:24;8.50;;;3.80;;
47025;SDS011;32783;51.756;-2.556;2023-05-10T13:15:49;9.32;;;3.95;;
47025;SDS011;32783;51.756;-2.556;2023-05-10T13:18:15;8.68;;;3.65;;
47025;SDS011;32783;51.756;-2.556;2023-05-10T13:20:40;9.40;;;3.75;;
47025;SDS011;32783;51.756;-2.556;2023-05-10T13:23:06;7.32;;;3.00;;
47025;SDS011;32783;51.756;-2.556;2023-05-10T13:25:31;6.00;;;2.78;;
47025;SDS011;32783;51.756;-2.556;2023-05-10T13:27:56;4.63;;;2.40;;
47025;SDS011;32783;51.756;-2.556;2023-05-10T13:30:22;4.35;;;2.40;;
47025;SDS011;32783;51.756;-2.556;2023-05-10T13:32:48;5.28;;;3.00;;
47025;SDS011;32783;51.756;-2.556;2023-05-10T13:35:14;5.25;;;2.20;;
47025;SDS011;32783;51.756;-2.556;2023-05-10T13:37:46;4.93;;;3.10;;
47025;SDS011;32783;51.756;-2.556;2023-05-10T13:40:11;5.65;;;2.30;;
47025;SDS011;32783;51.756;-2.556;2023-05-10T13:42:37;4.03;;;2.03;;
47025;SDS011;32783;51.756;-2.556;2023-05-10T13:45:02;4.50;;;2.10;;
47025;SDS011;32783;51.756;-2.556;2023-05-10T13:47:28;5.20;;;2.33;;
47025;SDS011;32783;51.756;-2.556;2023-05-10T13:49:54;3.65;;;1.60;;
47025;SDS011;32783;51.756;-2.556;2023-05-10T13:52:19;4.63;;;1.92;;
47025;SDS011;32783;51.756;-2.556;2023-05-10T13:54:44;8.68;;;2.55;;
47025;SDS011;32783;51.756;-2.556;2023-05-10T13:57:10;6.70;;;2.30;;
47025;SDS011;32783;51.756;-2.556;2023-05-10T13:59:38;5.63;;;3.15;;
47025;SDS011;32783;51.756;-2.556;2023-05-10T14:02:04;6.60;;;2.58;;
47025;SDS011;32783;51.756;-2.556;2023-05-10T14:04:29;3.85;;;1.83;;
47025;SDS011;32783;51.756;-2.556;2023-05-10T14:06:55;7.22;;;2.47;;
47025;SDS011;32783;51.756;-2.556;2023-05-10T14:09:21;5.65;;;2.00;;
47025;SDS011;32783;51.756;-2.556;2023-05-10T14:11:46;3.67;;;1.80;;
47025;SDS011;32783;51.756;-2.556;2023-05-10T14:14:12;3.28;;;1.90;;
47025;SDS011;32783;51.756;-2.556;2023-05-10T14:16:38;6.38;;;1.95;;
47025;SDS011;32783;51.756;-2.556;2023-05-10T14:19:06;4.55;;;1.98;;
47025;SDS011;32783;51.756;-2.556;2023-05-10T14:21:32;2.58;;;1.42;;
47025;SDS011;32783;51.756;-2.556;2023-05-10T14:23:58;3.88;;;1.90;;
47025;SDS011;32783;51.756;-2.556;2023-05-10T14:26:23;3.53;;;1.65;;
47025;SDS011;32783;51.756;-2.556;2023-05-10T14:28:48;4.68;;;1.80;;
47025;SDS011;32783;51.756;-2.556;2023-05-10T14:31:14;3.15;;;1.17;;
47025;SDS011;32783;51.756;-2.556;2023-05-10T14:33:41;4.25;;;1.60;;
47025;SDS011;32783;51.756;-2.556;2023-05-10T14:36:07;4.47;;;1.30;;
47025;SDS011;32783;51.756;-2.556;2023-05-10T14:38:33;2.45;;;1.25;;
47025;SDS011;32783;51.756;-2.556;2023-05-10T14:40:59;3.58;;;2.17;;
47025;SDS011;32783;51.756;-2.556;2023-05-10T14:43:24;4.78;;;1.48;;
47025;SDS011;32783;51.756;-2.556;2023-05-10T14:45:49;2.10;;;1.20;;
47025;SDS011;32783;51.756;-2.556;2023-05-10T14:48:15;1.92;;;1.08;;
47025;SDS011;32783;51.756;-2.556;2023-05-10T14:50:42;2.72;;;1.30;;
47025;SDS011;32783;51.756;-2.556;2023-05-10T14:53:08;4.07;;;1.30;;
47025;SDS011;32783;51.756;-2.556;2023-05-10T14:55:34;2.22;;;1.42;;
47025;SDS011;32783;51.756;-2.556;2023-05-10T14:58:00;2.67;;;1.30;;
47025;SDS011;32783;51.756;-2.556;2023-05-10T15:00:25;2.28;;;1.20;;
47025;SDS011;32783;51.756;-2.556;2023-05-10T15:02:51;3.03;;;1.25;;
47025;SDS011;32783;51.756;-2.556;2023-05-10T15:05:16;2.20;;;1.00;;
47025;SDS011;32783;51.756;-2.556;2023-05-10T15:07:42;2.70;;;1.15;;
47025;SDS011;32783;51.756;-2.556;2023-05-10T15:10:09;3.22;;;1.20;;
47025;SDS011;32783;51.756;-2.556;2023-05-10T15:12:35;2.78;;;1.30;;
47025;SDS011;32783;51.756;-2.556;2023-05-10T15:15:00;2.35;;;1.17;;
47025;SDS011;32783;51.756;-2.556;2023-05-10T15:17:25;2.97;;;1.27;;
47025;SDS011;32783;51.756;-2.556;2023-05-10T15:19:51;2.80;;;1.15;;
47025;SDS011;32783;51.756;-2.556;2023-05-10T15:22:16;4.30;;;1.60;;
47025;SDS011;32783;51.756;-2.556;2023-05-10T15:24:42;3.45;;;1.15;;
47025;SDS011;32783;51.756;-2.556;2023-05-10T15:27:08;5.18;;;1.20;;